createdAt,value
2023-05-10T00:00:29.827Z,6.25
2023-05-10T00:03:09.946Z,8.05
2023-05-10T00:05:37.024Z,5.85
2023-05-10T00:08:04.608Z,2.40
2023-05-10T00:10:31.534Z,4.78
2023-05-10T00:12:58.789Z,3.60
2023-05-10T00:15:25.754Z,2.50
2023-05-10T00:17:53.054Z,2.33
2023-05-10T00:20:20.052Z,1.50
2023-05-10T00:22:47.297Z,1.27
2023-05-10T00:25:14.191Z,1.67
2023-05-10T00:27:41.461Z,1.30
2023-05-10T00:30:08.812Z,0.90
2023-05-10T00:32:36.172Z,0.70
2023-05-10T00:35:03.208Z,0.70
2023-05-10T00:37:30.802Z,0.77
2023-05-10T00:39:57.793Z,1.17
2023-05-10T00:42:25.131Z,0.70
2023-05-10T00:44:54.199Z,0.80
2023-05-10T00:47:21.689Z,0.80
2023-05-10T00:49:48.960Z,0.93
2023-05-10T00:52:16.439Z,0.80
2023-05-10T00:54:43.858Z,1.00
2023-05-10T00:57:12.440Z,0.90
2023-05-10T00:59:39.430Z,0.98
2023-05-10T01:02:07.788Z,0.95
2023-05-10T01:04:36.658Z,1.00
2023-05-10T01:07:04.286Z,1.10
2023-05-10T01:09:31.413Z,1.07
2023-05-10T01:11:59.369Z,1.05
2023-05-10T01:14:27.397Z,1.20
2023-05-10T01:16:55.059Z,1.02
2023-05-10T01:19:27.717Z,1.10
2023-05-10T01:22:10.545Z,1.00
2023-05-10T01:25:01.740Z,0.90
2023-05-10T01:27:46.756Z,0.98
2023-05-10T01:30:16.736Z,0.90
2023-05-10T01:33:22.806Z,1.10
2023-05-10T01:36:09.948Z,1.23
2023-05-10T01:38:51.666Z,1.10
2023-05-10T01:41:26.135Z,1.52
2023-05-10T01:44:01.599Z,1.00
2023-05-10T01:46:40.793Z,0.90
2023-05-10T01:49:25.061Z,0.90
2023-05-10T01:51:55.864Z,1.00
2023-05-10T01:54:24.892Z,1.30
2023-05-10T01:56:59.885Z,1.02
2023-05-10T01:59:32.019Z,1.10
2023-05-10T02:02:01.122Z,1.00
2023-05-10T02:04:29.400Z,1.20
2023-05-10T02:06:57.580Z,1.10
2023-05-10T02:09:29.008Z,1.35
2023-05-10T02:11:56.642Z,1.20
2023-05-10T02:14:25.620Z,1.17
2023-05-10T02:16:55.150Z,1.00
2023-05-10T02:19:23.232Z,1.20
2023-05-10T02:21:52.378Z,1.10
2023-05-10T02:24:21.133Z,1.00
2023-05-10T02:26:49.475Z,1.30
2023-05-10T02:29:18.042Z,1.33
2023-05-10T02:31:45.738Z,1.60
2023-05-10T02:34:14.626Z,1.30
2023-05-10T02:36:42.850Z,1.20
2023-05-10T02:39:13.826Z,1.50
2023-05-10T02:41:43.282Z,1.50
2023-05-10T02:44:12.045Z,1.35
2023-05-10T02:46:39.245Z,1.35
2023-05-10T02:49:06.921Z,1.50
2023-05-10T02:51:37.308Z,1.40
2023-05-10T02:54:20.722Z,1.48
2023-05-10T02:56:59.208Z,1.20
2023-05-10T02:59:26.709Z,1.40
2023-05-10T03:01:53.916Z,1.50
2023-05-10T03:04:21.843Z,1.50
2023-05-10T03:06:49.493Z,1.50
2023-05-10T03:09:16.859Z,1.40
2023-05-10T03:12:11.614Z,1.20
2023-05-10T03:15:02.018Z,1.30
2023-05-10T03:17:42.270Z,1.60
2023-05-10T03:20:17.562Z,1.50
2023-05-10T03:23:00.763Z,1.30
2023-05-10T03:25:29.141Z,1.48
2023-05-10T03:27:57.692Z,1.60
2023-05-10T03:30:26.003Z,1.40
2023-05-10T03:32:52.959Z,1.50
2023-05-10T03:35:20.268Z,1.65
2023-05-10T03:37:48.054Z,1.70
2023-05-10T03:40:15.925Z,1.60
2023-05-10T03:42:44.012Z,1.73
2023-05-10T03:45:12.209Z,1.80
2023-05-10T03:47:39.178Z,1.80
2023-05-10T03:50:07.242Z,1.90
2023-05-10T03:52:34.221Z,2.05
2023-05-10T03:55:01.429Z,2.00
2023-05-10T03:57:28.327Z,1.60
2023-05-10T03:59:55.662Z,2.40
2023-05-10T04:02:23.711Z,2.10
2023-05-10T04:04:51.483Z,1.70
2023-05-10T04:07:19.195Z,1.50
2023-05-10T04:09:46.473Z,1.50
2023-05-10T04:12:13.373Z,1.80
2023-05-10T04:14:40.565Z,1.48
2023-05-10T04:17:07.722Z,1.98
2023-05-10T04:19:35.009Z,2.00
2023-05-10T04:22:03.451Z,2.25
2023-05-10T04:24:30.819Z,2.45
2023-05-10T04:26:57.951Z,2.10
2023-05-10T04:29:25.297Z,2.70
2023-05-10T04:31:52.213Z,3.20
2023-05-10T04:34:19.884Z,2.92
2023-05-10T04:36:46.808Z,2.60
2023-05-10T04:39:14.910Z,2.53
2023-05-10T04:41:41.837Z,2.60
2023-05-10T04:44:09.061Z,1.90
2023-05-10T04:46:36.027Z,2.22
2023-05-10T04:49:03.324Z,2.25
2023-05-10T04:51:30.270Z,2.63
2023-05-10T04:54:06.253Z,2.10
2023-05-10T04:56:34.113Z,2.00
2023-05-10T04:59:01.333Z,2.10
2023-05-10T05:01:28.517Z,2.30
2023-05-10T05:03:55.883Z,2.10
2023-05-10T05:06:22.963Z,2.05
2023-05-10T05:08:50.774Z,2.00
2023-05-10T05:11:18.632Z,2.00
2023-05-10T05:13:46.033Z,2.00
2023-05-10T05:16:13.072Z,1.95
2023-05-10T05:18:40.357Z,2.17
2023-05-10T05:21:17.721Z,2.07
2023-05-10T05:23:45.280Z,2.28
2023-05-10T05:26:12.356Z,1.90
2023-05-10T05:28:39.658Z,2.22
2023-05-10T05:31:08.765Z,1.90
2023-05-10T05:33:36.348Z,2.13
2023-05-10T05:36:05.298Z,2.13
2023-05-10T05:38:32.718Z,2.47
2023-05-10T05:40:59.606Z,2.22
2023-05-10T05:43:27.114Z,2.78
2023-05-10T05:45:55.034Z,2.50
2023-05-10T05:48:22.798Z,2.47
2023-05-10T05:50:50.194Z,2.30
2023-05-10T05:53:17.070Z,2.28
2023-05-10T05:55:55.382Z,2.33
2023-05-10T05:58:28.246Z,4.60
2023-05-10T06:00:55.553Z,5.60
2023-05-10T06:03:22.773Z,5.95
2023-05-10T06:05:50.521Z,4.38
2023-05-10T06:08:17.403Z,2.80
2023-05-10T06:10:45.551Z,2.70
2023-05-10T06:13:12.655Z,1.90
2023-05-10T06:15:39.913Z,1.80
2023-05-10T06:18:07.252Z,2.17
2023-05-10T06:20:34.870Z,1.98
2023-05-10T06:23:02.010Z,2.10
2023-05-10T06:25:29.219Z,2.20
2023-05-10T06:27:59.151Z,2.63
2023-05-10T06:30:30.207Z,2.13
2023-05-10T06:32:57.787Z,2.35
2023-05-10T06:35:25.777Z,2.13
2023-05-10T06:37:53.118Z,2.53
2023-05-10T06:40:20.846Z,2.92
2023-05-10T06:42:48.921Z,2.58
2023-05-10T06:45:17.330Z,2.00
2023-05-10T06:47:44.652Z,2.27
2023-05-10T06:50:15.015Z,2.60
2023-05-10T06:52:42.053Z,3.33
2023-05-10T06:55:09.975Z,3.60
2023-05-10T06:57:37.225Z,3.97
2023-05-10T07:00:08.151Z,3.23
2023-05-10T07:02:35.104Z,3.40
2023-05-10T07:05:03.667Z,2.53
2023-05-10T07:07:30.977Z,2.90
2023-05-10T07:09:58.860Z,2.20
2023-05-10T07:12:26.629Z,2.00
2023-05-10T07:14:53.935Z,1.85
2023-05-10T07:17:21.141Z,2.33
2023-05-10T07:19:48.514Z,1.70
2023-05-10T07:22:16.521Z,1.40
2023-05-10T07:24:43.955Z,1.77
2023-05-10T07:27:10.848Z,1.50
2023-05-10T07:29:38.610Z,1.70
2023-05-10T07:32:06.143Z,1.80
2023-05-10T07:34:33.392Z,1.85
2023-05-10T07:37:00.564Z,2.80
2023-05-10T07:39:28.603Z,2.10
2023-05-10T07:41:56.487Z,1.73
2023-05-10T07:44:24.597Z,1.60
2023-05-10T07:46:51.635Z,1.90
2023-05-10T07:49:18.960Z,1.80
2023-05-10T07:51:45.931Z,1.50
2023-05-10T07:54:16.855Z,1.40
2023-05-10T07:56:48.322Z,1.23
2023-05-10T07:59:17.298Z,1.25
2023-05-10T08:01:44.920Z,1.63
2023-05-10T08:04:12.870Z,1.50
2023-05-10T08:06:41.485Z,1.60
2023-05-10T08:09:09.658Z,1.30
2023-05-10T08:11:36.704Z,1.15
2023-05-10T08:14:04.082Z,1.00
2023-05-10T08:16:31.098Z,1.05
2023-05-10T08:18:58.601Z,1.13
2023-05-10T08:21:27.265Z,1.17
2023-05-10T08:23:54.532Z,0.90
2023-05-10T08:26:22.732Z,0.90
2023-05-10T08:28:50.100Z,1.20
2023-05-10T08:31:17.260Z,1.02
2023-05-10T08:33:44.918Z,0.90
2023-05-10T08:36:12.272Z,0.90
2023-05-10T08:38:39.478Z,0.93
2023-05-10T08:41:07.245Z,0.77
2023-05-10T08:43:37.066Z,0.90
2023-05-10T08:46:06.503Z,0.88
2023-05-10T08:48:35.790Z,0.93
2023-05-10T08:51:04.766Z,0.90
2023-05-10T08:53:35.191Z,1.00
2023-05-10T08:56:03.492Z,0.98
2023-05-10T08:58:30.881Z,0.90
2023-05-10T09:00:58.347Z,1.20
2023-05-10T09:03:25.685Z,1.00
2023-05-10T09:05:52.933Z,1.05
2023-05-10T09:08:21.329Z,1.20
2023-05-10T09:10:49.471Z,1.00
2023-05-10T09:13:16.931Z,1.30
2023-05-10T09:15:46.080Z,1.23
2023-05-10T09:18:13.986Z,1.30
2023-05-10T09:20:41.699Z,1.10
2023-05-10T09:23:09.561Z,1.70
2023-05-10T09:25:36.866Z,1.20
2023-05-10T09:28:07.856Z,1.10
2023-05-10T09:30:34.781Z,1.10
2023-05-10T09:33:03.032Z,1.23
2023-05-10T09:35:32.591Z,1.30
2023-05-10T09:38:05.654Z,1.30
2023-05-10T09:40:33.165Z,1.40
2023-05-10T09:43:01.937Z,1.40
2023-05-10T09:45:33.407Z,1.33
2023-05-10T09:48:04.942Z,1.90
2023-05-10T09:50:31.990Z,1.70
2023-05-10T09:53:01.555Z,1.60
2023-05-10T09:55:37.136Z,1.23
2023-05-10T09:58:05.576Z,1.55
2023-05-10T10:00:40.220Z,1.40
2023-05-10T10:03:12.967Z,1.38
2023-05-10T10:05:41.745Z,1.10
2023-05-10T10:08:13.257Z,1.10
2023-05-10T10:10:41.672Z,1.40
2023-05-10T10:13:09.293Z,1.40
2023-05-10T10:15:37.315Z,1.70
2023-05-10T10:18:06.721Z,1.70
2023-05-10T10:20:33.686Z,1.88
2023-05-10T10:23:00.981Z,1.60
2023-05-10T10:25:28.138Z,1.50
2023-05-10T10:28:07.485Z,1.27
2023-05-10T10:30:48.046Z,1.80
2023-05-10T10:33:48.412Z,2.08
2023-05-10T10:36:16.678Z,1.40
2023-05-10T10:38:49.912Z,1.35
2023-05-10T10:41:37.113Z,1.67
2023-05-10T10:44:26.392Z,1.37
2023-05-10T10:47:09.540Z,1.48
2023-05-10T10:49:42.937Z,1.10
2023-05-10T10:52:25.173Z,1.40
2023-05-10T10:55:16.476Z,1.70
2023-05-10T10:58:01.301Z,1.30
2023-05-10T11:00:33.057Z,1.40
2023-05-10T11:03:20.053Z,1.40
2023-05-10T11:05:51.058Z,1.10
2023-05-10T11:08:36.874Z,1.30
2023-05-10T11:11:10.312Z,1.37
2023-05-10T11:13:43.229Z,1.20
2023-05-10T11:16:28.200Z,1.00
2023-05-10T11:18:57.801Z,0.90
2023-05-10T11:21:25.178Z,1.30
2023-05-10T11:23:57.766Z,1.83
2023-05-10T11:26:32.987Z,1.95
2023-05-10T11:29:01.929Z,1.38
2023-05-10T11:31:30.182Z,1.67
2023-05-10T11:33:58.809Z,1.90
2023-05-10T11:36:34.277Z,1.73
2023-05-10T11:39:01.280Z,2.10
2023-05-10T11:41:30.701Z,1.50
2023-05-10T11:43:59.102Z,1.63
2023-05-10T11:46:28.892Z,1.10
2023-05-10T11:49:05.712Z,1.30
2023-05-10T11:51:35.583Z,1.10
2023-05-10T11:54:06.917Z,1.20
2023-05-10T11:56:34.458Z,1.20
2023-05-10T11:59:02.980Z,1.85
2023-05-10T12:01:31.539Z,3.60
2023-05-10T12:04:00.929Z,2.35
2023-05-10T12:06:30.637Z,1.42
2023-05-10T12:08:58.011Z,1.10
2023-05-10T12:11:29.824Z,1.40
2023-05-10T12:13:57.811Z,1.13
2023-05-10T12:16:30.639Z,1.20
2023-05-10T12:18:59.201Z,1.25
2023-05-10T12:21:28.871Z,1.15
2023-05-10T12:24:01.385Z,0.90
2023-05-10T12:26:29.479Z,3.57
2023-05-10T12:29:12.447Z,2.85
2023-05-10T12:32:00.248Z,1.92
2023-05-10T12:34:31.227Z,1.30
2023-05-10T12:36:59.924Z,1.90
2023-05-10T12:39:26.899Z,1.20
2023-05-10T12:41:54.207Z,0.90
2023-05-10T12:44:21.161Z,0.80
2023-05-10T12:46:48.856Z,0.90
2023-05-10T12:49:15.883Z,0.73
2023-05-10T12:51:43.130Z,0.80
2023-05-10T12:54:10.164Z,0.90
2023-05-10T12:56:38.199Z,1.00
2023-05-10T12:59:05.335Z,1.00
2023-05-10T13:01:32.692Z,0.80
2023-05-10T13:04:01.242Z,0.90
2023-05-10T13:06:28.641Z,0.88
2023-05-10T13:08:55.614Z,1.00
2023-05-10T13:11:22.964Z,0.90
2023-05-10T13:13:49.861Z,0.80
2023-05-10T13:16:17.141Z,0.67
2023-05-10T13:18:44.110Z,0.80
2023-05-10T13:21:12.419Z,0.90
2023-05-10T13:23:39.343Z,0.70
2023-05-10T13:26:06.584Z,0.90
2023-05-10T13:28:33.529Z,0.70
2023-05-10T13:31:01.277Z,1.00
2023-05-10T13:33:28.243Z,0.85
2023-05-10T13:35:55.912Z,1.35
2023-05-10T13:38:23.391Z,0.93
2023-05-10T13:40:53.903Z,0.80
2023-05-10T13:43:21.017Z,0.80
2023-05-10T13:45:48.285Z,0.95
2023-05-10T13:48:15.230Z,0.90
2023-05-10T13:50:42.492Z,0.93
2023-05-10T13:53:09.487Z,0.60
2023-05-10T13:55:37.011Z,0.90
2023-05-10T13:58:03.991Z,0.90
2023-05-10T14:00:31.729Z,0.70
2023-05-10T14:02:58.674Z,0.93
2023-05-10T14:05:26.808Z,0.90
2023-05-10T14:07:53.953Z,0.90
2023-05-10T14:10:21.271Z,1.02
2023-05-10T14:12:48.208Z,1.00
2023-05-10T14:15:15.565Z,0.80
2023-05-10T14:17:42.603Z,0.80
2023-05-10T14:20:10.369Z,1.10
2023-05-10T14:22:37.307Z,0.98
2023-05-10T14:25:04.802Z,1.88
2023-05-10T14:27:33.542Z,2.33
2023-05-10T14:30:00.855Z,1.60
2023-05-10T14:32:28.634Z,1.50
2023-05-10T14:34:55.871Z,1.33
2023-05-10T14:37:22.770Z,1.10
2023-05-10T14:39:50.126Z,0.77
2023-05-10T14:42:17.016Z,0.90
2023-05-10T14:44:44.277Z,1.00
2023-05-10T14:47:12.451Z,1.42
2023-05-10T14:49:39.871Z,1.00
2023-05-10T14:52:06.833Z,0.90
2023-05-10T14:54:37.121Z,1.00
2023-05-10T14:57:04.226Z,1.33
2023-05-10T14:59:31.834Z,1.50
2023-05-10T15:01:59.106Z,1.50
2023-05-10T15:04:28.676Z,1.70
2023-05-10T15:07:00.323Z,1.70
2023-05-10T15:09:28.840Z,1.50
2023-05-10T15:11:56.278Z,1.00
2023-05-10T15:14:24.231Z,0.93
2023-05-10T15:16:51.164Z,1.30
2023-05-10T15:19:18.452Z,1.20
2023-05-10T15:21:46.178Z,1.10
2023-05-10T15:24:13.390Z,1.10
2023-05-10T15:26:40.725Z,0.90
2023-05-10T15:29:07.979Z,1.10
2023-05-10T15:31:37.757Z,0.80
2023-05-10T15:34:05.089Z,1.10
2023-05-10T15:36:33.006Z,0.80
2023-05-10T15:39:00.360Z,1.00
2023-05-10T15:41:27.342Z,1.00
2023-05-10T15:43:55.318Z,0.90
2023-05-10T15:46:22.975Z,0.90
2023-05-10T15:48:50.370Z,1.13
2023-05-10T15:51:17.288Z,0.90
2023-05-10T15:53:56.378Z,0.90
2023-05-10T15:56:31.469Z,0.80
2023-05-10T15:58:58.694Z,1.10
2023-05-10T16:01:26.083Z,1.10
2023-05-10T16:03:53.341Z,0.90
2023-05-10T16:06:20.440Z,1.13
2023-05-10T16:08:47.961Z,1.17
2023-05-10T16:11:14.908Z,1.17
2023-05-10T16:13:42.427Z,1.38
2023-05-10T16:16:09.633Z,0.95
2023-05-10T16:18:37.174Z,1.08
2023-05-10T16:21:04.375Z,1.20
2023-05-10T16:23:31.678Z,1.37
2023-05-10T16:25:58.631Z,1.15
2023-05-10T16:28:26.048Z,1.10
2023-05-10T16:30:53.318Z,1.10
2023-05-10T16:33:20.940Z,1.10
2023-05-10T16:35:47.866Z,1.00
2023-05-10T16:38:15.243Z,1.08
2023-05-10T16:40:42.148Z,1.10
2023-05-10T16:43:09.468Z,1.10
2023-05-10T16:45:36.418Z,0.90
2023-05-10T16:48:04.107Z,0.90
2023-05-10T16:50:31.205Z,1.10
2023-05-10T16:52:58.484Z,1.00
2023-05-10T16:55:26.463Z,1.10
2023-05-10T16:57:59.864Z,0.90
2023-05-10T17:00:27.544Z,1.10
2023-05-10T17:02:55.904Z,0.93
2023-05-10T17:05:23.232Z,1.20
2023-05-10T17:07:50.842Z,1.20
2023-05-10T17:10:18.023Z,1.20
2023-05-10T17:12:45.741Z,1.20
2023-05-10T17:15:12.870Z,1.10
2023-05-10T17:17:40.723Z,1.02
2023-05-10T17:20:08.593Z,1.17
2023-05-10T17:22:35.846Z,1.30
2023-05-10T17:25:02.907Z,1.00
2023-05-10T17:27:30.411Z,1.20
2023-05-10T17:29:58.022Z,1.13
2023-05-10T17:32:26.061Z,1.20
2023-05-10T17:34:53.031Z,1.38
2023-05-10T17:37:20.354Z,1.50
2023-05-10T17:39:47.931Z,1.20
2023-05-10T17:42:17.705Z,1.20
2023-05-10T17:44:44.638Z,1.20
2023-05-10T17:47:12.024Z,1.25
2023-05-10T17:49:40.006Z,1.10
2023-05-10T17:52:07.600Z,1.30
2023-05-10T17:54:34.658Z,1.20
2023-05-10T17:57:02.117Z,1.17
2023-05-10T17:59:29.004Z,1.08
2023-05-10T18:01:56.282Z,0.97
2023-05-10T18:04:23.204Z,1.10
2023-05-10T18:06:50.770Z,1.13
2023-05-10T18:09:18.325Z,1.10
2023-05-10T18:11:45.556Z,1.10
2023-05-10T18:14:12.463Z,1.00
2023-05-10T18:16:39.799Z,1.00
2023-05-10T18:19:06.775Z,1.10
2023-05-10T18:21:34.431Z,1.08
2023-05-10T18:24:01.858Z,1.10
2023-05-10T18:26:29.174Z,1.10
2023-05-10T18:28:56.090Z,1.00
2023-05-10T18:31:23.987Z,0.98
2023-05-10T18:33:51.002Z,1.00
2023-05-10T18:36:18.261Z,1.00
2023-05-10T18:38:45.636Z,0.80
2023-05-10T18:41:14.687Z,0.80
2023-05-10T18:43:43.140Z,1.00
2023-05-10T18:46:10.448Z,0.70
2023-05-10T18:48:37.635Z,0.95
2023-05-10T18:51:05.109Z,0.90
2023-05-10T18:53:32.778Z,0.90
2023-05-10T18:56:00.144Z,1.20
2023-05-10T18:58:28.630Z,2.10
2023-05-10T19:00:56.243Z,1.90
2023-05-10T19:03:23.221Z,1.70
2023-05-10T19:05:50.527Z,1.60
2023-05-10T19:08:17.874Z,1.58
2023-05-10T19:10:46.023Z,1.40
2023-05-10T19:13:13.128Z,1.38
2023-05-10T19:15:40.774Z,1.20
2023-05-10T19:18:08.972Z,1.35
2023-05-10T19:20:37.262Z,1.30
2023-05-10T19:25:36.241Z,1.40
2023-05-10T19:28:03.154Z,1.13
2023-05-10T19:30:32.192Z,1.25
2023-05-10T19:32:59.212Z,1.38
2023-05-10T19:35:26.528Z,1.38
2023-05-10T19:37:53.473Z,1.40
2023-05-10T19:40:20.927Z,1.30
2023-05-10T19:42:48.578Z,1.20
2023-05-10T19:45:16.502Z,1.10
2023-05-10T19:47:44.053Z,1.10
2023-05-10T19:50:12.689Z,1.30
2023-05-10T19:52:39.750Z,1.00
2023-05-10T19:55:08.066Z,1.20
2023-05-10T19:57:35.080Z,1.45
2023-05-10T20:00:02.959Z,1.65
2023-05-10T20:02:38.148Z,1.50
2023-05-10T20:05:05.746Z,1.43
2023-05-10T20:07:32.631Z,1.52
2023-05-10T20:09:59.993Z,1.60
2023-05-10T20:12:29.702Z,1.95
2023-05-10T20:14:57.218Z,2.00
2023-05-10T20:17:24.193Z,2.00
2023-05-10T20:19:51.538Z,1.65
2023-05-10T20:22:18.439Z,2.00
2023-05-10T20:24:45.736Z,2.00
2023-05-10T20:27:12.658Z,1.73
2023-05-10T20:29:40.063Z,1.63
2023-05-10T20:32:07.316Z,1.70
2023-05-10T20:34:35.271Z,3.33
2023-05-10T20:37:02.319Z,3.40
2023-05-10T20:39:30.348Z,3.78
2023-05-10T20:41:57.296Z,7.80
2023-05-10T20:44:24.917Z,7.20
2023-05-10T20:46:51.865Z,3.15
2023-05-10T20:49:19.919Z,2.47
2023-05-10T20:51:46.826Z,2.50
2023-05-10T20:54:14.453Z,1.83
2023-05-10T20:56:41.440Z,1.40
2023-05-10T20:59:08.656Z,1.50
2023-05-10T21:01:35.873Z,1.50
2023-05-10T21:04:03.912Z,1.52
2023-05-10T21:06:32.137Z,1.60
2023-05-10T21:08:59.464Z,1.60
2023-05-10T21:11:26.552Z,1.30
2023-05-10T21:13:53.947Z,1.30
2023-05-10T21:16:21.042Z,1.20
2023-05-10T21:18:48.455Z,1.10
2023-05-10T21:21:15.656Z,1.17
2023-05-10T21:23:43.426Z,1.25
2023-05-10T21:26:10.399Z,1.17
2023-05-10T21:28:39.028Z,1.10
2023-05-10T21:31:07.705Z,1.43
2023-05-10T21:33:34.997Z,1.20
2023-05-10T21:36:01.967Z,1.55
2023-05-10T21:38:29.212Z,1.50
2023-05-10T21:40:56.432Z,1.40
2023-05-10T21:43:23.720Z,1.20
2023-05-10T21:45:50.722Z,1.20
2023-05-10T21:48:18.441Z,1.23
2023-05-10T21:50:45.439Z,0.98
2023-05-10T21:53:12.718Z,1.13
2023-05-10T21:55:39.745Z,1.40
2023-05-10T21:58:07.213Z,2.00
2023-05-10T22:00:34.695Z,2.50
2023-05-10T22:03:02.097Z,2.25
2023-05-10T22:05:29.144Z,1.90
2023-05-10T22:07:56.429Z,1.90
2023-05-10T22:10:23.846Z,1.90
2023-05-10T22:12:51.830Z,2.45
2023-05-10T22:15:18.883Z,2.30
2023-05-10T22:17:46.253Z,2.10
2023-05-10T22:20:13.272Z,1.37
2023-05-10T22:22:40.521Z,1.45
2023-05-10T22:25:07.972Z,1.70
2023-05-10T22:27:35.313Z,1.20
2023-05-10T22:30:03.851Z,1.40
2023-05-10T22:32:31.952Z,1.60
2023-05-10T22:34:58.980Z,1.10
2023-05-10T22:37:27.043Z,1.20
2023-05-10T22:39:53.959Z,1.08
2023-05-10T22:42:21.619Z,1.10
2023-05-10T22:44:48.506Z,1.20
2023-05-10T22:47:16.610Z,1.00
2023-05-10T22:49:43.567Z,0.90
2023-05-10T22:52:11.203Z,0.95
2023-05-10T22:54:38.627Z,1.10
2023-05-10T22:57:06.220Z,0.90
2023-05-10T22:59:33.370Z,1.52
2023-05-10T23:02:00.770Z,0.90
2023-05-10T23:04:28.047Z,0.90
2023-05-10T23:06:55.294Z,0.90
2023-05-10T23:09:22.752Z,0.93
2023-05-10T23:11:49.923Z,0.90
2023-05-10T23:14:17.129Z,0.90
2023-05-10T23:16:44.418Z,0.90
2023-05-10T23:19:11.289Z,0.93
2023-05-10T23:21:38.649Z,1.10
2023-05-10T23:24:06.400Z,1.10
2023-05-10T23:26:33.642Z,1.10
2023-05-10T23:29:01.960Z,1.70
2023-05-10T23:31:29.313Z,1.10
2023-05-10T23:33:56.243Z,1.17
2023-05-10T23:36:23.436Z,1.00
2023-05-10T23:38:50.342Z,1.10
2023-05-10T23:41:17.532Z,1.00
2023-05-10T23:43:44.828Z,1.00
2023-05-10T23:46:12.039Z,1.00
2023-05-10T23:48:38.936Z,1.27
2023-05-10T23:51:06.182Z,1.17
2023-05-10T23:53:33.049Z,1.08
2023-05-10T23:56:00.252Z,1.00
2023-05-10T23:58:27.150Z,1.07
